PRINT OUT SECTION, show »

METAR EPBY 212100Z 07008KT CAVOK 19/14 Q1012=

METAR EPGD 212100Z 06007KT CAVOK 17/13 Q1014 =

METAR EPKK 212100Z 05006KT CAVOK 19/13 Q1009 =

METAR EPKT 212100Z 07006KT CAVOK 17/12 Q1009 =

METAR EPLB 212100Z 07005KT CAVOK 16/14 Q1012 =

METAR EPLL 212100Z 08007KT CAVOK 20/11 Q1011 =

METAR EPML 212100Z NIL=

METAR EPMO 212100Z 07008KT CAVOK 18/12 Q1012 =

METAR EPPO 212100Z 05008KT CAVOK 19/12 Q1010 =

METAR EPRA 212100Z 08005KT CAVOK 17/12 Q1012=

METAR EPRZ 212100Z 06007KT CAVOK 18/14 Q1010 =

METAR EPSC 212100Z 07008KT CAVOK 21/14 Q1011 =

METAR EPSY 212100Z 05003KT 030V090 CAVOK 17/12 Q1014=

METAR EPWA 212100Z 09010KT CAVOK 21/12 Q1012 NOSIG=

METAR EPWR 212100Z 06005KT CAVOK 22/15 Q1008 =

METAR EPZG 212100Z NIL=
 METAR EPZG
:Brak depeszy METAR z EPZG Zielona Góra Babimost z dnia 21 z godziny 21:00 UTC